createdAt,value
2017-08-28T00:02:47.462Z,4.00
2017-08-28T00:05:17.027Z,4.40
2017-08-28T00:07:46.648Z,3.77
2017-08-28T00:10:16.480Z,4.53
2017-08-28T00:12:46.725Z,4.77
2017-08-28T00:15:16.564Z,4.27
2017-08-28T00:17:46.164Z,4.43
2017-08-28T00:20:16.014Z,4.90
2017-08-28T00:22:45.597Z,4.10
2017-08-28T00:25:21.930Z,4.67
2017-08-28T00:27:51.525Z,4.60
2017-08-28T00:30:21.162Z,4.33
2017-08-28T00:32:51.741Z,4.80
2017-08-28T00:35:21.396Z,4.87
2017-08-28T00:37:51.099Z,3.50
2017-08-28T00:40:20.703Z,4.60
2017-08-28T00:42:50.334Z,4.13
2017-08-28T00:45:19.931Z,3.60
2017-08-28T00:47:49.608Z,4.63
2017-08-28T00:50:19.184Z,4.10
2017-08-28T00:58:37.611Z,4.27
2017-08-28T01:01:07.181Z,4.97
2017-08-28T01:03:37.115Z,3.60
2017-08-28T01:06:06.690Z,3.97
2017-08-28T01:08:36.316Z,4.13
2017-08-28T01:11:05.893Z,4.50
2017-08-28T01:13:35.536Z,3.87
2017-08-28T01:16:05.115Z,4.60
2017-08-28T01:18:34.744Z,4.70
2017-08-28T01:21:23.180Z,4.70
2017-08-28T01:23:52.744Z,4.17
2017-08-28T01:26:22.362Z,4.00
2017-08-28T01:28:52.009Z,4.87
2017-08-28T01:31:21.586Z,4.67
2017-08-28T01:33:51.245Z,4.63
2017-08-28T01:36:20.805Z,4.47
2017-08-28T01:38:50.570Z,4.37
2017-08-28T01:41:20.526Z,4.30
2017-08-28T01:43:50.161Z,4.10
2017-08-28T01:46:19.739Z,3.70
2017-08-28T01:54:38.173Z,4.30
2017-08-28T01:57:07.750Z,4.63
2017-08-28T01:59:37.420Z,4.47
2017-08-28T02:02:07.076Z,4.03
2017-08-28T02:04:36.853Z,4.60
2017-08-28T02:07:06.505Z,4.13
2017-08-28T02:09:36.122Z,4.13
2017-08-28T02:12:05.768Z,3.90
2017-08-28T02:14:35.333Z,4.67
2017-08-28T02:17:22.035Z,4.40
2017-08-28T02:22:46.721Z,4.47
2017-08-28T02:25:16.357Z,4.30
2017-08-28T02:27:45.926Z,4.30
2017-08-28T02:30:15.538Z,4.63
2017-08-28T02:32:45.118Z,4.27
2017-08-28T02:35:14.712Z,3.87
2017-08-28T02:37:44.273Z,3.73
2017-08-28T02:40:13.917Z,4.47
2017-08-28T02:42:43.500Z,4.40
2017-08-28T02:45:13.169Z,4.87
2017-08-28T02:47:42.736Z,3.97
2017-08-28T02:50:12.480Z,4.23
2017-08-28T02:52:42.450Z,4.23
2017-08-28T02:55:12.125Z,4.60
2017-08-28T02:57:41.719Z,7.70
2017-08-28T03:00:21.361Z,4.77
2017-08-28T03:02:50.932Z,4.43
2017-08-28T03:05:20.566Z,3.77
2017-08-28T03:07:50.138Z,4.10
2017-08-28T03:10:19.807Z,4.33
2017-08-28T03:12:49.368Z,4.53
2017-08-28T03:15:19.018Z,4.07
2017-08-28T03:17:48.664Z,4.27
2017-08-28T03:20:18.290Z,4.30
2017-08-28T03:22:47.866Z,4.40
2017-08-28T03:25:17.492Z,5.10
2017-08-28T03:27:47.098Z,4.50
2017-08-28T03:30:22.792Z,4.20
2017-08-28T03:32:52.375Z,3.97
2017-08-28T03:35:22.229Z,4.43
2017-08-28T03:37:51.810Z,4.20
2017-08-28T03:40:21.459Z,3.80
2017-08-28T03:42:51.020Z,4.30
2017-08-28T03:45:20.674Z,4.23
2017-08-28T03:47:50.257Z,3.90
2017-08-28T03:50:20.095Z,4.23
2017-08-28T03:52:49.665Z,4.37
2017-08-28T03:55:19.271Z,4.17
2017-08-28T03:57:48.924Z,4.87
2017-08-28T04:00:18.498Z,4.50
2017-08-28T04:02:48.470Z,4.40
2017-08-28T04:05:18.051Z,4.87
2017-08-28T04:07:47.852Z,4.37
2017-08-28T04:10:23.603Z,4.10
2017-08-28T04:12:53.214Z,4.27
2017-08-28T04:15:23.418Z,4.50
2017-08-28T04:17:53.054Z,5.10
2017-08-28T04:20:22.625Z,4.60
2017-08-28T04:22:52.872Z,4.37
2017-08-28T04:25:23.053Z,4.40
2017-08-28T04:27:53.392Z,4.53
2017-08-28T04:30:23.000Z,4.47
2017-08-28T04:32:53.050Z,4.43
2017-08-28T04:35:22.629Z,4.33
2017-08-28T04:40:47.598Z,4.67
2017-08-28T04:43:17.165Z,4.47
2017-08-28T04:45:46.772Z,4.77
2017-08-28T04:48:16.423Z,4.67
2017-08-28T04:50:46.277Z,5.10
2017-08-28T04:53:16.698Z,5.40
2017-08-28T04:55:46.620Z,4.27
2017-08-28T04:58:16.283Z,5.03
2017-08-28T05:00:45.857Z,4.07
2017-08-28T05:03:15.431Z,4.60
2017-08-28T05:05:45.750Z,4.40
2017-08-28T05:08:15.409Z,5.50
2017-08-28T05:10:45.133Z,4.50
2017-08-28T05:13:14.711Z,8.60
2017-08-28T05:15:44.480Z,5.83
2017-08-28T05:18:14.478Z,8.80
2017-08-28T05:20:44.857Z,5.70
2017-08-28T05:23:15.199Z,8.97
2017-08-28T05:25:44.849Z,7.80
2017-08-28T05:28:14.567Z,7.57
2017-08-28T05:30:44.958Z,5.30
2017-08-28T05:33:21.272Z,9.10
2017-08-28T05:35:50.912Z,6.10
2017-08-28T05:38:20.516Z,5.70
2017-08-28T05:40:50.240Z,5.43
2017-08-28T05:43:19.813Z,5.70
2017-08-28T05:45:50.033Z,6.40
2017-08-28T05:48:23.001Z,5.00
2017-08-28T05:50:52.569Z,5.10
2017-08-28T05:53:22.216Z,7.67
2017-08-28T05:55:52.260Z,7.47
2017-08-28T05:58:21.907Z,7.33
2017-08-28T06:00:52.228Z,7.23
2017-08-28T06:03:21.881Z,6.63
2017-08-28T06:05:51.553Z,7.30
2017-08-28T06:08:21.859Z,7.57
2017-08-28T06:10:51.997Z,7.40
2017-08-28T06:16:22.352Z,7.30
2017-08-28T06:19:04.462Z,7.10
2017-08-28T06:21:34.086Z,7.47
2017-08-28T06:24:23.277Z,7.20
2017-08-28T06:38:31.130Z,7.27
2017-08-28T06:44:08.483Z,7.47
2017-08-28T06:52:27.546Z,6.13
2017-08-28T06:54:57.515Z,6.80
2017-08-28T06:57:27.894Z,4.83
2017-08-28T07:00:21.046Z,6.60
2017-08-28T07:02:50.656Z,6.10
2017-08-28T07:05:21.125Z,5.23
2017-08-28T07:07:51.321Z,5.27
2017-08-28T07:10:21.157Z,5.03
2017-08-28T07:15:46.277Z,7.80
2017-08-28T07:18:21.823Z,6.03
2017-08-28T07:32:22.616Z,6.03
2017-08-28T07:37:47.027Z,8.40
2017-08-28T07:40:22.414Z,5.20
2017-08-28T07:54:28.515Z,5.33
2017-08-28T08:03:59.637Z,3.93
2017-08-28T08:06:29.211Z,3.73
2017-08-28T08:14:48.935Z,3.07
2017-08-28T08:17:22.251Z,3.67
2017-08-28T08:19:52.639Z,3.50
2017-08-28T08:22:22.217Z,3.90
2017-08-28T08:25:33.741Z,3.90
2017-08-28T08:28:03.508Z,4.00
2017-08-28T08:30:33.117Z,3.87
2017-08-28T08:33:22.221Z,3.43
2017-08-28T08:38:46.314Z,3.57
2017-08-28T08:41:22.640Z,2.70
2017-08-28T08:46:46.638Z,2.90
2017-08-28T08:49:22.178Z,2.30
2017-08-28T08:51:52.046Z,2.70
2017-08-28T08:54:21.634Z,2.93
2017-08-28T08:56:51.265Z,3.00
2017-08-28T08:59:20.837Z,2.80
2017-08-28T09:04:45.138Z,2.70
2017-08-28T09:07:14.706Z,1.87
2017-08-28T09:09:44.281Z,2.10
2017-08-28T09:12:13.904Z,2.20
2017-08-28T09:14:43.542Z,2.90
2017-08-28T09:17:13.448Z,1.93
2017-08-28T09:19:43.029Z,2.27
2017-08-28T09:22:12.608Z,2.23
2017-08-28T09:24:42.282Z,2.50
2017-08-28T09:27:11.936Z,2.17
2017-08-28T09:29:41.597Z,2.10
2017-08-28T09:32:24.132Z,2.20
2017-08-28T09:34:53.710Z,2.40
2017-08-28T09:37:23.276Z,2.70
2017-08-28T09:39:52.931Z,2.53
2017-08-28T09:42:22.507Z,2.20
2017-08-28T09:44:52.098Z,2.30
2017-08-28T09:47:22.145Z,2.30
2017-08-28T09:49:51.731Z,2.03
2017-08-28T09:52:21.312Z,2.07
2017-08-28T09:54:50.920Z,2.20
2017-08-28T09:57:20.504Z,2.17
2017-08-28T10:02:45.114Z,2.43
2017-08-28T10:05:14.713Z,2.30
2017-08-28T10:07:44.282Z,1.97
2017-08-28T10:10:22.247Z,2.53
2017-08-28T10:12:51.807Z,2.00
2017-08-28T10:15:22.852Z,2.10
2017-08-28T10:20:47.394Z,2.30
2017-08-28T10:23:16.986Z,1.83
2017-08-28T10:25:46.710Z,2.57
2017-08-28T10:28:22.643Z,2.00
2017-08-28T10:30:52.221Z,2.33
2017-08-28T10:33:22.002Z,1.90
2017-08-28T10:38:46.390Z,2.53
2017-08-28T10:41:19.836Z,2.40
2017-08-28T11:10:50.109Z,1.87
2017-08-28T11:19:02.423Z,2.13
2017-08-28T11:24:26.362Z,2.33
2017-08-28T11:41:29.521Z,2.10
2017-08-28T11:44:24.403Z,1.90
2017-08-28T11:58:31.369Z,2.27
2017-08-28T12:02:24.209Z,1.80
2017-08-28T12:08:01.610Z,2.07
2017-08-28T12:32:22.708Z,2.17
2017-08-28T12:37:48.264Z,1.87
2017-08-28T12:43:21.890Z,2.50
2017-08-28T12:48:46.257Z,1.93
2017-08-28T12:51:15.860Z,2.37
2017-08-28T12:53:45.478Z,2.00
2017-08-28T12:56:15.098Z,1.97
2017-08-28T12:58:44.703Z,1.83
2017-08-28T13:01:21.618Z,1.90
2017-08-28T13:03:51.229Z,2.30
2017-08-28T13:06:20.822Z,1.87
2017-08-28T13:08:50.493Z,2.17
2017-08-28T13:11:20.116Z,2.00
2017-08-28T13:13:49.751Z,2.40
2017-08-28T13:16:22.363Z,2.00
2017-08-28T13:19:08.472Z,2.33
2017-08-28T13:21:38.079Z,1.87
2017-08-28T13:24:07.676Z,2.07
2017-08-28T13:26:37.313Z,2.23
2017-08-28T13:29:06.885Z,2.17
2017-08-28T13:31:36.528Z,2.07
2017-08-28T13:34:06.135Z,2.10
2017-08-28T13:36:35.741Z,2.00
2017-08-28T13:39:05.564Z,2.03
2017-08-28T13:41:35.170Z,2.07
2017-08-28T13:44:04.737Z,2.30
2017-08-28T13:46:34.306Z,2.40
2017-08-28T13:49:10.463Z,2.40
2017-08-28T13:51:40.048Z,2.57
2017-08-28T13:54:09.674Z,2.07
2017-08-28T13:56:39.255Z,2.00
2017-08-28T13:59:09.067Z,2.30
2017-08-28T14:01:39.269Z,2.40
2017-08-28T14:04:08.855Z,2.37
2017-08-28T14:06:38.433Z,2.30
2017-08-28T14:09:08.060Z,2.30
2017-08-28T14:15:07.544Z,1.90
2017-08-28T14:17:37.126Z,2.43
2017-08-28T14:20:06.697Z,2.20
2017-08-28T14:22:36.310Z,2.10
2017-08-28T14:25:06.097Z,2.17
2017-08-28T14:27:35.971Z,2.70
2017-08-28T14:30:05.636Z,2.30
2017-08-28T14:32:35.226Z,2.90
2017-08-28T14:35:04.873Z,2.83
2017-08-28T14:37:34.449Z,2.60
2017-08-28T14:40:10.571Z,2.67
2017-08-28T14:42:40.145Z,2.30
2017-08-28T14:45:09.717Z,2.87
2017-08-28T14:47:39.432Z,2.50
2017-08-28T14:50:09.006Z,2.23
2017-08-28T14:52:38.582Z,2.07
2017-08-28T14:55:08.207Z,2.20
2017-08-28T14:57:37.773Z,2.90
2017-08-28T15:00:07.396Z,2.60
2017-08-28T15:02:36.967Z,2.20
2017-08-28T15:05:06.589Z,2.03
2017-08-28T15:07:36.197Z,2.60
2017-08-28T15:10:05.783Z,2.13
2017-08-28T15:12:35.353Z,2.50
2017-08-28T15:15:04.978Z,2.10
2017-08-28T15:17:34.553Z,2.90
2017-08-28T15:20:04.386Z,2.30
2017-08-28T15:22:33.961Z,2.20
2017-08-28T15:25:09.649Z,2.40
2017-08-28T15:27:39.705Z,2.07
2017-08-28T15:30:09.296Z,2.40
2017-08-28T15:32:38.909Z,2.30
2017-08-28T15:35:08.490Z,2.00
2017-08-28T15:37:38.129Z,2.70
2017-08-28T15:40:07.751Z,2.30
2017-08-28T15:42:37.512Z,3.07
2017-08-28T15:45:07.120Z,2.60
2017-08-28T15:47:36.746Z,2.50
2017-08-28T15:50:09.657Z,1.93
2017-08-28T15:52:39.290Z,3.23
2017-08-28T15:55:08.868Z,2.10
2017-08-28T15:57:38.458Z,2.30
2017-08-28T16:00:08.078Z,2.63
2017-08-28T16:02:37.662Z,3.17
2017-08-28T16:05:07.241Z,2.67
2017-08-28T16:10:31.122Z,2.90
2017-08-28T16:13:00.708Z,2.23
2017-08-28T16:15:30.276Z,2.27
2017-08-28T16:18:07.915Z,2.10
2017-08-28T16:20:37.494Z,2.43
2017-08-28T16:23:07.074Z,2.37
2017-08-28T16:25:37.684Z,2.17
2017-08-28T16:28:07.271Z,1.93
2017-08-28T16:30:37.014Z,1.87
2017-08-28T16:33:06.639Z,2.70
2017-08-28T16:35:36.229Z,2.50
2017-08-28T16:38:05.813Z,2.67
2017-08-28T16:40:35.449Z,2.57
2017-08-28T16:43:05.202Z,2.40
2017-08-28T16:45:34.769Z,2.07
2017-08-28T16:48:04.380Z,2.90
2017-08-28T16:50:33.994Z,2.33
2017-08-28T16:53:03.670Z,2.40
2017-08-28T16:55:33.295Z,2.47
2017-08-28T16:58:02.881Z,2.20
2017-08-28T17:00:32.486Z,2.50
2017-08-28T17:03:02.127Z,2.30
2017-08-28T17:05:32.730Z,2.53
2017-08-28T17:08:02.402Z,2.17
2017-08-28T17:14:07.040Z,2.37
2017-08-28T17:16:36.614Z,2.33
2017-08-28T17:19:06.233Z,2.80
2017-08-28T17:21:35.825Z,2.40
2017-08-28T17:24:05.470Z,2.80
2017-08-28T17:26:35.139Z,2.50
2017-08-28T17:29:04.730Z,2.33
2017-08-28T17:31:34.315Z,2.40
2017-08-28T17:34:04.167Z,2.30
2017-08-28T17:36:33.751Z,1.70
2017-08-28T17:39:03.392Z,1.93
2017-08-28T17:44:31.226Z,2.30
2017-08-28T17:47:00.805Z,2.80
2017-08-28T17:49:30.391Z,2.37
2017-08-28T17:52:00.008Z,1.90
2017-08-28T17:54:29.597Z,2.40
2017-08-28T17:57:09.138Z,2.47
2017-08-28T17:59:38.740Z,2.00
2017-08-28T18:02:08.879Z,2.30
2017-08-28T18:04:38.534Z,2.57
2017-08-28T18:07:08.146Z,2.33
2017-08-28T18:12:32.186Z,2.20
2017-08-28T18:15:01.768Z,2.47
2017-08-28T18:17:31.377Z,2.43
2017-08-28T18:20:01.001Z,2.97
2017-08-28T18:25:25.933Z,2.60
2017-08-28T18:28:07.753Z,2.87
2017-08-28T18:30:37.381Z,2.50
2017-08-28T18:33:08.558Z,2.83
2017-08-28T18:35:38.222Z,3.30
2017-08-28T18:38:07.800Z,3.20
2017-08-28T18:40:37.436Z,4.00
2017-08-28T18:43:07.016Z,3.83
2017-08-28T18:45:36.808Z,4.17
2017-08-28T18:48:06.452Z,3.10
2017-08-28T18:50:36.046Z,3.30
2017-08-28T18:53:05.644Z,3.73
2017-08-28T18:55:35.314Z,4.00
2017-08-28T18:58:04.903Z,3.60
2017-08-28T19:00:34.538Z,3.97
2017-08-28T19:03:04.180Z,4.80
2017-08-28T19:05:33.754Z,5.50
2017-08-28T19:08:03.389Z,4.00
2017-08-28T19:10:32.986Z,4.90
2017-08-28T19:13:02.566Z,3.93
2017-08-28T19:15:32.286Z,3.80
2017-08-28T19:18:07.622Z,4.63
2017-08-28T19:20:37.234Z,4.67
2017-08-28T19:23:07.334Z,4.50
2017-08-28T19:25:36.905Z,4.00
2017-08-28T19:28:06.533Z,3.90
2017-08-28T19:30:36.142Z,4.73
2017-08-28T19:33:05.722Z,4.47
2017-08-28T19:35:35.361Z,4.57
2017-08-28T19:38:04.975Z,4.40
2017-08-28T19:40:34.624Z,4.90
2017-08-28T19:43:04.199Z,4.37
2017-08-28T19:48:29.135Z,4.47
2017-08-28T19:51:00.936Z,4.13
2017-08-28T19:53:30.587Z,4.43
2017-08-28T19:56:08.335Z,4.53
2017-08-28T20:04:27.048Z,4.07
2017-08-28T20:07:08.965Z,5.40
2017-08-28T20:09:38.582Z,5.03
2017-08-28T20:12:08.187Z,4.10
2017-08-28T20:14:57.185Z,4.90
2017-08-28T20:17:27.112Z,4.57
2017-08-28T20:19:56.809Z,4.83
2017-08-28T20:22:27.347Z,4.50
2017-08-28T20:25:09.197Z,4.70
2017-08-28T20:30:34.517Z,4.40
2017-08-28T20:33:04.113Z,5.00
2017-08-28T20:35:33.774Z,4.73
2017-08-28T20:38:03.364Z,5.70
2017-08-28T20:40:33.008Z,5.10
2017-08-28T20:43:09.628Z,4.80
2017-08-28T20:45:39.265Z,4.70
2017-08-28T20:48:08.889Z,5.37
2017-08-28T20:50:38.782Z,5.80
2017-08-28T20:53:08.491Z,5.63
2017-08-28T20:55:38.088Z,5.10
2017-08-28T20:58:07.703Z,8.67
2017-08-28T21:00:37.299Z,4.97
2017-08-28T21:05:59.668Z,5.70
2017-08-28T21:08:29.327Z,5.13
2017-08-28T21:11:11.660Z,5.20
2017-08-28T21:13:42.082Z,5.60
2017-08-28T21:16:11.771Z,5.67
2017-08-28T21:18:41.452Z,5.70
2017-08-28T21:21:11.030Z,6.60
2017-08-28T21:23:40.665Z,5.07
2017-08-28T21:26:10.250Z,5.43
2017-08-28T21:28:39.901Z,4.93
2017-08-28T21:33:44.573Z,4.77
2017-08-28T21:36:14.158Z,4.63
2017-08-28T21:38:43.740Z,5.70
2017-08-28T21:41:13.344Z,5.47
2017-08-28T21:43:43.102Z,5.00
2017-08-28T21:46:13.277Z,6.00
2017-08-28T21:48:42.849Z,5.43
2017-08-28T21:51:12.481Z,6.07
2017-08-28T21:53:42.368Z,5.80
2017-08-28T21:56:12.125Z,5.27
2017-08-28T21:58:41.728Z,5.77
2017-08-28T22:01:11.324Z,5.90
2017-08-28T22:03:40.899Z,5.07
2017-08-28T22:06:10.550Z,6.07
2017-08-28T22:08:40.117Z,6.93
2017-08-28T22:11:09.855Z,5.60
2017-08-28T22:16:33.891Z,5.57
2017-08-28T22:19:09.125Z,5.37
2017-08-28T22:21:38.734Z,5.93
2017-08-28T22:24:08.323Z,5.10
2017-08-28T22:26:38.713Z,7.50
2017-08-28T22:29:08.651Z,5.93
2017-08-28T22:31:38.297Z,7.47
2017-08-28T22:34:07.864Z,6.17
2017-08-28T22:36:37.504Z,6.10
2017-08-28T22:39:07.090Z,5.83
2017-08-28T22:44:31.302Z,7.03
2017-08-28T22:47:00.972Z,5.97
2017-08-28T22:49:30.563Z,6.17
2017-08-28T22:52:01.732Z,6.47
2017-08-28T22:54:31.310Z,7.80
2017-08-28T22:57:01.579Z,5.83
2017-08-28T22:59:31.413Z,5.90
2017-08-28T23:02:09.129Z,6.00
2017-08-28T23:04:39.376Z,6.10
2017-08-28T23:07:09.261Z,6.90
2017-08-28T23:09:39.349Z,7.43
2017-08-28T23:12:09.742Z,7.10
2017-08-28T23:14:39.978Z,10.93
2017-08-28T23:17:10.025Z,6.13
2017-08-28T23:19:39.596Z,6.33
2017-08-28T23:22:09.229Z,6.80
2017-08-28T23:24:39.513Z,6.30
2017-08-28T23:27:09.158Z,5.77
2017-08-28T23:32:33.079Z,7.57
2017-08-28T23:35:02.655Z,7.00
2017-08-28T23:37:33.118Z,6.53
2017-08-28T23:40:03.358Z,6.40
2017-08-28T23:42:32.982Z,6.97
2017-08-28T23:45:02.563Z,6.10
2017-08-28T23:47:32.160Z,5.63
2017-08-28T23:50:08.268Z,8.03
2017-08-28T23:52:38.108Z,5.43
2017-08-28T23:55:07.996Z,6.10
2017-08-28T23:57:37.679Z,5.93
